sensor_id;sensor_type;location;lat;lon;timestamp;noise_LAeq;noise_LA_min;noise_LA_max;noise_LA01;noise_LA95
72160;Laerm;60045;51.792;10.938;2023-12-20T00:01:46;31.44;28.93;44.52;;
72160;Laerm;60045;51.792;10.938;2023-12-20T00:04:11;31.39;29.28;43.42;;
72160;Laerm;60045;51.792;10.938;2023-12-20T00:06:37;53.88;29.71;72.01;;
72160;Laerm;60045;51.792;10.938;2023-12-20T00:09:03;31.58;29.23;42.23;;
72160;Laerm;60045;51.792;10.938;2023-12-20T00:11:28;32.61;30.27;45.59;;
72160;Laerm;60045;51.792;10.938;2023-12-20T00:13:54;32.05;29.94;44.36;;
72160;Laerm;60045;51.792;10.938;2023-12-20T00:16:20;31.42;29.83;46.23;;
72160;Laerm;60045;51.792;10.938;2023-12-20T00:18:46;31.71;29.85;42.36;;
72160;Laerm;60045;51.792;10.938;2023-12-20T00:21:11;31.93;30.01;40.74;;
72160;Laerm;60045;51.792;10.938;2023-12-20T00:23:37;31.68;29.60;41.73;;
72160;Laerm;60045;51.792;10.938;2023-12-20T00:26:03;31.66;29.75;41.22;;
72160;Laerm;60045;51.792;10.938;2023-12-20T00:28:29;31.53;29.52;41.43;;
72160;Laerm;60045;51.792;10.938;2023-12-20T00:30:54;33.21;29.86;46.93;;
72160;Laerm;60045;51.792;10.938;2023-12-20T00:33:20;51.51;29.74;67.60;;
72160;Laerm;60045;51.792;10.938;2023-12-20T00:35:46;31.24;29.43;43.09;;
72160;Laerm;60045;51.792;10.938;2023-12-20T00:38:12;31.99;29.72;49.40;;
72160;Laerm;60045;51.792;10.938;2023-12-20T00:40:37;32.62;29.89;51.83;;
72160;Laerm;60045;51.792;10.938;2023-12-20T00:43:03;32.03;30.22;43.76;;
72160;Laerm;60045;51.792;10.938;2023-12-20T00:45:29;32.96;30.27;45.74;;
72160;Laerm;60045;51.792;10.938;2023-12-20T00:47:55;31.91;29.87;43.80;;
72160;Laerm;60045;51.792;10.938;2023-12-20T00:50:20;53.73;29.68;71.71;;
72160;Laerm;60045;51.792;10.938;2023-12-20T00:52:47;31.07;29.06;41.52;;
72160;Laerm;60045;51.792;10.938;2023-12-20T00:55:12;30.54;28.95;41.37;;
72160;Laerm;60045;51.792;10.938;2023-12-20T00:57:38;30.14;28.70;42.88;;
72160;Laerm;60045;51.792;10.938;2023-12-20T01:00:04;30.73;29.08;42.70;;
72160;Laerm;60045;51.792;10.938;2023-12-20T01:02:30;31.53;28.71;48.92;;
72160;Laerm;60045;51.792;10.938;2023-12-20T01:04:56;31.28;28.88;42.09;;
72160;Laerm;60045;51.792;10.938;2023-12-20T01:07:22;32.82;28.14;45.34;;
72160;Laerm;60045;51.792;10.938;2023-12-20T01:09:47;33.20;28.28;46.98;;
72160;Laerm;60045;51.792;10.938;2023-12-20T01:12:13;32.38;28.62;43.70;;
72160;Laerm;60045;51.792;10.938;2023-12-20T01:14:39;55.25;28.64;72.76;;
72160;Laerm;60045;51.792;10.938;2023-12-20T01:17:04;31.82;28.61;43.56;;
72160;Laerm;60045;51.792;10.938;2023-12-20T01:19:30;30.76;28.57;41.47;;
72160;Laerm;60045;51.792;10.938;2023-12-20T01:21:56;53.03;28.54;69.68;;
72160;Laerm;60045;51.792;10.938;2023-12-20T01:24:22;30.43;28.37;41.03;;
72160;Laerm;60045;51.792;10.938;2023-12-20T01:26:47;30.34;28.48;42.37;;
72160;Laerm;60045;51.792;10.938;2023-12-20T01:29:13;31.79;28.74;42.72;;
72160;Laerm;60045;51.792;10.938;2023-12-20T01:31:40;31.21;28.41;44.20;;
72160;Laerm;60045;51.792;10.938;2023-12-20T01:34:05;32.28;28.82;43.24;;
72160;Laerm;60045;51.792;10.938;2023-12-20T01:36:31;31.62;28.99;43.05;;
72160;Laerm;60045;51.792;10.938;2023-12-20T01:38:57;30.68;28.76;39.89;;
72160;Laerm;60045;51.792;10.938;2023-12-20T01:41:23;30.90;29.09;48.91;;
72160;Laerm;60045;51.792;10.938;2023-12-20T01:43:48;32.10;28.67;48.49;;
72160;Laerm;60045;51.792;10.938;2023-12-20T01:46:14;35.27;28.52;54.17;;
72160;Laerm;60045;51.792;10.938;2023-12-20T01:48:40;30.42;28.40;42.35;;
72160;Laerm;60045;51.792;10.938;2023-12-20T01:51:06;53.11;28.27;70.49;;
72160;Laerm;60045;51.792;10.938;2023-12-20T01:53:33;54.05;28.92;71.19;;
72160;Laerm;60045;51.792;10.938;2023-12-20T01:55:59;29.81;27.97;41.74;;
72160;Laerm;60045;51.792;10.938;2023-12-20T01:58:25;52.22;28.15;69.84;;
72160;Laerm;60045;51.792;10.938;2023-12-20T02:00:51;29.52;27.91;42.96;;
72160;Laerm;60045;51.792;10.938;2023-12-20T02:03:17;29.32;28.01;40.09;;
72160;Laerm;60045;51.792;10.938;2023-12-20T02:05:43;29.72;28.01;43.38;;
72160;Laerm;60045;51.792;10.938;2023-12-20T02:08:10;28.92;27.58;40.98;;
72160;Laerm;60045;51.792;10.938;2023-12-20T02:10:35;29.86;27.95;44.22;;
72160;Laerm;60045;51.792;10.938;2023-12-20T02:13:01;28.96;27.33;41.14;;
72160;Laerm;60045;51.792;10.938;2023-12-20T02:15:27;28.73;27.37;42.95;;
72160;Laerm;60045;51.792;10.938;2023-12-20T02:17:53;28.52;27.15;44.24;;
72160;Laerm;60045;51.792;10.938;2023-12-20T02:20:19;28.54;27.32;39.51;;
72160;Laerm;60045;51.792;10.938;2023-12-20T02:22:44;28.30;27.16;39.68;;
72160;Laerm;60045;51.792;10.938;2023-12-20T02:25:10;32.14;27.39;43.54;;
72160;Laerm;60045;51.792;10.938;2023-12-20T02:27:36;49.03;27.37;64.05;;
72160;Laerm;60045;51.792;10.938;2023-12-20T02:30:02;28.94;27.44;43.01;;
72160;Laerm;60045;51.792;10.938;2023-12-20T02:32:28;28.67;27.37;40.20;;
72160;Laerm;60045;51.792;10.938;2023-12-20T02:34:54;28.80;27.48;41.32;;
72160;Laerm;60045;51.792;10.938;2023-12-20T02:37:20;28.88;27.35;41.79;;
72160;Laerm;60045;51.792;10.938;2023-12-20T02:39:46;28.73;27.37;40.80;;
72160;Laerm;60045;51.792;10.938;2023-12-20T02:42:12;29.09;27.69;43.99;;
72160;Laerm;60045;51.792;10.938;2023-12-20T02:44:37;28.43;27.21;40.90;;
72160;Laerm;60045;51.792;10.938;2023-12-20T02:47:03;28.49;27.20;39.24;;
72160;Laerm;60045;51.792;10.938;2023-12-20T02:49:29;62.83;27.78;79.40;;
72160;Laerm;60045;51.792;10.938;2023-12-20T02:51:55;32.50;27.76;43.53;;
72160;Laerm;60045;51.792;10.938;2023-12-20T02:54:20;30.91;27.65;42.45;;
72160;Laerm;60045;51.792;10.938;2023-12-20T02:56:46;29.00;27.64;42.39;;
72160;Laerm;60045;51.792;10.938;2023-12-20T02:59:12;34.13;27.76;50.37;;
72160;Laerm;60045;51.792;10.938;2023-12-20T03:01:41;29.50;27.49;42.87;;
72160;Laerm;60045;51.792;10.938;2023-12-20T03:04:07;29.39;27.33;45.00;;
72160;Laerm;60045;51.792;10.938;2023-12-20T03:06:33;29.35;27.74;45.09;;
72160;Laerm;60045;51.792;10.938;2023-12-20T03:08:59;28.95;27.66;41.34;;
72160;Laerm;60045;51.792;10.938;2023-12-20T03:11:28;29.02;27.66;42.51;;
72160;Laerm;60045;51.792;10.938;2023-12-20T03:13:54;29.42;27.86;43.81;;
72160;Laerm;60045;51.792;10.938;2023-12-20T03:16:19;29.43;27.81;40.17;;
72160;Laerm;60045;51.792;10.938;2023-12-20T03:18:45;31.45;28.32;41.10;;
72160;Laerm;60045;51.792;10.938;2023-12-20T03:21:11;31.16;28.23;41.77;;
72160;Laerm;60045;51.792;10.938;2023-12-20T03:23:36;29.57;27.98;43.64;;
72160;Laerm;60045;51.792;10.938;2023-12-20T03:26:02;29.44;28.02;41.76;;
72160;Laerm;60045;51.792;10.938;2023-12-20T03:28:29;29.23;27.86;40.35;;
72160;Laerm;60045;51.792;10.938;2023-12-20T03:30:55;29.43;27.74;41.73;;
72160;Laerm;60045;51.792;10.938;2023-12-20T03:33:20;53.63;27.60;70.21;;
72160;Laerm;60045;51.792;10.938;2023-12-20T03:35:46;30.21;27.47;45.15;;
72160;Laerm;60045;51.792;10.938;2023-12-20T03:38:12;29.39;27.55;42.97;;
72160;Laerm;60045;51.792;10.938;2023-12-20T03:40:37;53.93;27.62;70.46;;
72160;Laerm;60045;51.792;10.938;2023-12-20T03:43:04;30.35;27.60;42.38;;
72160;Laerm;60045;51.792;10.938;2023-12-20T03:45:30;61.77;27.94;77.06;;
72160;Laerm;60045;51.792;10.938;2023-12-20T03:47:55;34.57;27.75;44.76;;
72160;Laerm;60045;51.792;10.938;2023-12-20T03:50:28;63.56;28.26;80.33;;
72160;Laerm;60045;51.792;10.938;2023-12-20T03:52:54;32.12;28.39;41.73;;
72160;Laerm;60045;51.792;10.938;2023-12-20T03:55:20;29.33;27.83;41.97;;
72160;Laerm;60045;51.792;10.938;2023-12-20T03:57:45;56.65;28.17;75.49;;
72160;Laerm;60045;51.792;10.938;2023-12-20T04:00:11;35.80;28.30;50.16;;
72160;Laerm;60045;51.792;10.938;2023-12-20T04:02:40;50.98;28.64;67.59;;
72160;Laerm;60045;51.792;10.938;2023-12-20T04:05:07;57.21;29.35;73.03;;
72160;Laerm;60045;51.792;10.938;2023-12-20T04:07:33;55.93;30.53;70.68;;
72160;Laerm;60045;51.792;10.938;2023-12-20T04:09:59;53.08;28.80;69.28;;
72160;Laerm;60045;51.792;10.938;2023-12-20T04:12:26;66.21;32.00;80.93;;
72160;Laerm;60045;51.792;10.938;2023-12-20T04:14:51;64.85;35.25;80.33;;
72160;Laerm;60045;51.792;10.938;2023-12-20T04:17:17;62.34;30.14;79.55;;
72160;Laerm;60045;51.792;10.938;2023-12-20T04:19:43;56.84;31.54;71.79;;
72160;Laerm;60045;51.792;10.938;2023-12-20T04:22:08;66.85;30.94;84.13;;
72160;Laerm;60045;51.792;10.938;2023-12-20T04:24:34;54.60;28.74;68.46;;
72160;Laerm;60045;51.792;10.938;2023-12-20T04:27:01;54.39;29.14;72.76;;
72160;Laerm;60045;51.792;10.938;2023-12-20T04:29:26;53.14;29.37;70.87;;
72160;Laerm;60045;51.792;10.938;2023-12-20T04:31:52;56.74;28.98;73.04;;
72160;Laerm;60045;51.792;10.938;2023-12-20T04:34:18;62.18;31.34;77.14;;
72160;Laerm;60045;51.792;10.938;2023-12-20T04:36:44;66.21;29.83;85.00;;
72160;Laerm;60045;51.792;10.938;2023-12-20T04:39:11;51.16;30.16;66.49;;
72160;Laerm;60045;51.792;10.938;2023-12-20T04:41:37;57.27;30.33;71.07;;
72160;Laerm;60045;51.792;10.938;2023-12-20T04:44:03;65.36;29.40;79.06;;
72160;Laerm;60045;51.792;10.938;2023-12-20T04:46:29;57.16;29.83;72.10;;
72160;Laerm;60045;51.792;10.938;2023-12-20T04:48:54;55.93;28.64;70.79;;
72160;Laerm;60045;51.792;10.938;2023-12-20T04:51:20;57.38;30.65;70.19;;
72160;Laerm;60045;51.792;10.938;2023-12-20T04:53:46;64.95;32.77;80.69;;
72160;Laerm;60045;51.792;10.938;2023-12-20T04:56:11;58.30;29.45;73.86;;
72160;Laerm;60045;51.792;10.938;2023-12-20T04:58:37;37.79;29.31;52.64;;
72160;Laerm;60045;51.792;10.938;2023-12-20T05:01:03;60.01;32.98;75.44;;
72160;Laerm;60045;51.792;10.938;2023-12-20T05:03:31;60.75;31.08;72.70;;
72160;Laerm;60045;51.792;10.938;2023-12-20T05:05:56;59.16;33.17;74.85;;
72160;Laerm;60045;51.792;10.938;2023-12-20T05:08:22;60.39;32.09;76.28;;
72160;Laerm;60045;51.792;10.938;2023-12-20T05:10:48;57.97;33.10;72.06;;
72160;Laerm;60045;51.792;10.938;2023-12-20T05:13:14;57.93;34.31;72.09;;
72160;Laerm;60045;51.792;10.938;2023-12-20T05:15:39;65.01;38.43;79.98;;
72160;Laerm;60045;51.792;10.938;2023-12-20T05:18:05;66.64;38.01;82.63;;
72160;Laerm;60045;51.792;10.938;2023-12-20T05:20:31;59.03;32.55;73.58;;
72160;Laerm;60045;51.792;10.938;2023-12-20T05:22:56;60.44;33.40;73.37;;
72160;Laerm;60045;51.792;10.938;2023-12-20T05:25:22;61.02;33.78;73.29;;
72160;Laerm;60045;51.792;10.938;2023-12-20T05:27:48;55.07;33.07;70.94;;
72160;Laerm;60045;51.792;10.938;2023-12-20T05:30:14;60.22;35.38;74.12;;
72160;Laerm;60045;51.792;10.938;2023-12-20T05:32:39;64.38;36.69;78.98;;
72160;Laerm;60045;51.792;10.938;2023-12-20T05:35:05;65.15;38.44;78.00;;
72160;Laerm;60045;51.792;10.938;2023-12-20T05:37:31;65.25;32.99;81.25;;
72160;Laerm;60045;51.792;10.938;2023-12-20T05:39:57;61.53;32.83;74.37;;
72160;Laerm;60045;51.792;10.938;2023-12-20T05:42:22;58.65;33.33;71.36;;
72160;Laerm;60045;51.792;10.938;2023-12-20T05:44:48;58.13;36.08;74.01;;
72160;Laerm;60045;51.792;10.938;2023-12-20T05:47:14;61.86;38.75;72.68;;
72160;Laerm;60045;51.792;10.938;2023-12-20T05:49:39;61.13;37.38;72.74;;
72160;Laerm;60045;51.792;10.938;2023-12-20T05:52:05;62.28;35.97;74.61;;
72160;Laerm;60045;51.792;10.938;2023-12-20T05:54:31;59.64;38.99;71.62;;
72160;Laerm;60045;51.792;10.938;2023-12-20T05:56:57;64.49;36.08;77.94;;
72160;Laerm;60045;51.792;10.938;2023-12-20T05:59:22;62.13;35.91;79.55;;
72160;Laerm;60045;51.792;10.938;2023-12-20T06:01:49;65.77;33.13;80.71;;
72160;Laerm;60045;51.792;10.938;2023-12-20T06:04:14;55.10;30.51;69.35;;
72160;Laerm;60045;51.792;10.938;2023-12-20T06:06:41;60.24;31.65;75.10;;
72160;Laerm;60045;51.792;10.938;2023-12-20T06:09:07;60.38;35.36;75.98;;
72160;Laerm;60045;51.792;10.938;2023-12-20T06:11:33;61.05;32.78;73.16;;
72160;Laerm;60045;51.792;10.938;2023-12-20T06:13:58;52.95;33.23;66.07;;
72160;Laerm;60045;51.792;10.938;2023-12-20T06:16:24;67.23;38.86;80.27;;
72160;Laerm;60045;51.792;10.938;2023-12-20T06:18:50;55.53;35.30;70.96;;
72160;Laerm;60045;51.792;10.938;2023-12-20T06:21:15;64.60;35.50;78.86;;
72160;Laerm;60045;51.792;10.938;2023-12-20T06:23:41;64.96;37.64;80.64;;
72160;Laerm;60045;51.792;10.938;2023-12-20T06:26:07;56.71;37.21;71.09;;
72160;Laerm;60045;51.792;10.938;2023-12-20T06:28:33;56.78;35.03;69.42;;
72160;Laerm;60045;51.792;10.938;2023-12-20T06:30:58;62.36;37.76;75.54;;
72160;Laerm;60045;51.792;10.938;2023-12-20T06:33:25;68.17;42.89;83.46;;
72160;Laerm;60045;51.792;10.938;2023-12-20T06:35:51;67.10;37.24;87.81;;
72160;Laerm;60045;51.792;10.938;2023-12-20T06:38:17;64.61;36.54;87.69;;
72160;Laerm;60045;51.792;10.938;2023-12-20T06:40:43;57.65;35.80;70.42;;
72160;Laerm;60045;51.792;10.938;2023-12-20T06:43:09;64.69;37.07;80.33;;
72160;Laerm;60045;51.792;10.938;2023-12-20T06:45:34;58.92;34.01;70.62;;
72160;Laerm;60045;51.792;10.938;2023-12-20T06:48:00;67.91;37.77;80.66;;
72160;Laerm;60045;51.792;10.938;2023-12-20T06:50:26;64.60;37.49;77.14;;
72160;Laerm;60045;51.792;10.938;2023-12-20T06:52:52;68.73;39.25;81.92;;
72160;Laerm;60045;51.792;10.938;2023-12-20T06:55:18;67.08;35.98;83.47;;
72160;Laerm;60045;51.792;10.938;2023-12-20T06:57:44;66.55;38.66;82.60;;
72160;Laerm;60045;51.792;10.938;2023-12-20T07:00:10;58.33;38.54;69.71;;
72160;Laerm;60045;51.792;10.938;2023-12-20T07:02:36;56.86;36.28;72.61;;
72160;Laerm;60045;51.792;10.938;2023-12-20T07:05:02;58.97;35.86;70.89;;
72160;Laerm;60045;51.792;10.938;2023-12-20T07:07:28;66.95;40.86;80.79;;
72160;Laerm;60045;51.792;10.938;2023-12-20T07:09:54;64.53;36.69;79.07;;
72160;Laerm;60045;51.792;10.938;2023-12-20T07:12:19;63.47;37.40;79.27;;
72160;Laerm;60045;51.792;10.938;2023-12-20T07:14:45;57.00;36.67;66.52;;
72160;Laerm;60045;51.792;10.938;2023-12-20T07:17:11;61.00;40.86;77.15;;
72160;Laerm;60045;51.792;10.938;2023-12-20T07:19:38;63.00;40.39;73.98;;
72160;Laerm;60045;51.792;10.938;2023-12-20T07:22:05;62.61;37.14;80.51;;
72160;Laerm;60045;51.792;10.938;2023-12-20T07:24:31;61.34;37.66;77.12;;
72160;Laerm;60045;51.792;10.938;2023-12-20T07:26:57;59.17;37.47;74.07;;
72160;Laerm;60045;51.792;10.938;2023-12-20T07:29:22;54.35;37.09;72.60;;
72160;Laerm;60045;51.792;10.938;2023-12-20T07:31:48;62.93;37.07;78.89;;
72160;Laerm;60045;51.792;10.938;2023-12-20T07:34:14;58.64;39.07;69.70;;
72160;Laerm;60045;51.792;10.938;2023-12-20T07:36:39;65.76;40.41;82.04;;
72160;Laerm;60045;51.792;10.938;2023-12-20T07:39:05;58.68;37.60;72.38;;
72160;Laerm;60045;51.792;10.938;2023-12-20T07:41:31;62.77;42.27;78.17;;
72160;Laerm;60045;51.792;10.938;2023-12-20T07:43:57;66.65;40.12;82.38;;
72160;Laerm;60045;51.792;10.938;2023-12-20T07:46:22;65.65;39.99;78.49;;
72160;Laerm;60045;51.792;10.938;2023-12-20T07:48:48;58.10;37.78;76.48;;
72160;Laerm;60045;51.792;10.938;2023-12-20T07:51:14;67.60;39.95;81.16;;
72160;Laerm;60045;51.792;10.938;2023-12-20T07:53:40;64.27;41.02;81.04;;
72160;Laerm;60045;51.792;10.938;2023-12-20T07:56:26;67.97;40.81;77.99;;
72160;Laerm;60045;51.792;10.938;2023-12-20T07:58:51;63.87;37.46;79.64;;
72160;Laerm;60045;51.792;10.938;2023-12-20T08:01:17;67.95;42.66;80.77;;
72160;Laerm;60045;51.792;10.938;2023-12-20T08:03:43;65.70;36.93;82.89;;
72160;Laerm;60045;51.792;10.938;2023-12-20T08:06:09;60.67;38.24;77.78;;
72160;Laerm;60045;51.792;10.938;2023-12-20T08:08:35;59.40;38.84;70.75;;
72160;Laerm;60045;51.792;10.938;2023-12-20T08:11:01;60.38;38.46;73.23;;
72160;Laerm;60045;51.792;10.938;2023-12-20T08:13:28;60.00;38.17;74.32;;
72160;Laerm;60045;51.792;10.938;2023-12-20T08:15:55;66.24;39.33;79.65;;
72160;Laerm;60045;51.792;10.938;2023-12-20T08:18:21;64.70;40.04;80.18;;
72160;Laerm;60045;51.792;10.938;2023-12-20T08:20:47;64.78;36.87;82.75;;
72160;Laerm;60045;51.792;10.938;2023-12-20T08:23:13;61.99;41.15;74.02;;
72160;Laerm;60045;51.792;10.938;2023-12-20T08:25:39;65.76;40.61;79.00;;
72160;Laerm;60045;51.792;10.938;2023-12-20T08:28:04;69.23;39.71;81.38;;
72160;Laerm;60045;51.792;10.938;2023-12-20T08:30:30;52.14;38.25;68.22;;
72160;Laerm;60045;51.792;10.938;2023-12-20T08:32:59;66.07;38.66;84.55;;
72160;Laerm;60045;51.792;10.938;2023-12-20T08:35:24;71.55;41.20;87.82;;
72160;Laerm;60045;51.792;10.938;2023-12-20T08:37:50;65.30;42.87;80.32;;
72160;Laerm;60045;51.792;10.938;2023-12-20T08:40:16;53.06;39.34;69.07;;
72160;Laerm;60045;51.792;10.938;2023-12-20T08:42:42;67.32;43.17;80.85;;
72160;Laerm;60045;51.792;10.938;2023-12-20T08:45:07;58.99;39.28;73.44;;
72160;Laerm;60045;51.792;10.938;2023-12-20T08:47:33;63.01;37.23;77.74;;
72160;Laerm;60045;51.792;10.938;2023-12-20T08:49:59;61.32;35.47;78.32;;
72160;Laerm;60045;51.792;10.938;2023-12-20T08:52:26;63.05;37.81;77.09;;
72160;Laerm;60045;51.792;10.938;2023-12-20T08:54:52;60.77;37.68;74.92;;
72160;Laerm;60045;51.792;10.938;2023-12-20T08:57:21;66.13;43.66;77.82;;
72160;Laerm;60045;51.792;10.938;2023-12-20T08:59:48;61.14;40.20;77.32;;
72160;Laerm;60045;51.792;10.938;2023-12-20T09:02:14;60.14;38.91;72.52;;
72160;Laerm;60045;51.792;10.938;2023-12-20T09:04:40;65.31;40.35;82.31;;
72160;Laerm;60045;51.792;10.938;2023-12-20T09:07:06;59.06;40.09;73.69;;
72160;Laerm;60045;51.792;10.938;2023-12-20T09:09:32;61.37;39.30;75.97;;
72160;Laerm;60045;51.792;10.938;2023-12-20T09:11:58;58.46;38.61;71.87;;
72160;Laerm;60045;51.792;10.938;2023-12-20T09:14:24;58.95;37.07;71.38;;
72160;Laerm;60045;51.792;10.938;2023-12-20T09:16:49;61.81;39.19;74.09;;
72160;Laerm;60045;51.792;10.938;2023-12-20T09:19:16;66.28;38.92;84.84;;
72160;Laerm;60045;51.792;10.938;2023-12-20T09:21:42;67.37;40.89;80.62;;
72160;Laerm;60045;51.792;10.938;2023-12-20T09:24:08;66.27;43.51;78.89;;
72160;Laerm;60045;51.792;10.938;2023-12-20T09:26:34;58.39;41.07;71.08;;
72160;Laerm;60045;51.792;10.938;2023-12-20T09:28:59;63.38;42.46;77.28;;
72160;Laerm;60045;51.792;10.938;2023-12-20T09:31:25;56.61;40.32;69.94;;
72160;Laerm;60045;51.792;10.938;2023-12-20T09:33:51;51.65;38.19;67.33;;
72160;Laerm;60045;51.792;10.938;2023-12-20T09:36:16;60.71;40.29;72.72;;
72160;Laerm;60045;51.792;10.938;2023-12-20T09:38:42;60.58;42.36;70.41;;
72160;Laerm;60045;51.792;10.938;2023-12-20T09:41:08;63.13;42.83;76.71;;
72160;Laerm;60045;51.792;10.938;2023-12-20T09:43:35;68.06;45.48;80.91;;
72160;Laerm;60045;51.792;10.938;2023-12-20T09:46:02;66.13;41.83;81.07;;
72160;Laerm;60045;51.792;10.938;2023-12-20T09:48:30;63.90;41.73;76.07;;
72160;Laerm;60045;51.792;10.938;2023-12-20T09:50:56;62.09;40.89;77.14;;
72160;Laerm;60045;51.792;10.938;2023-12-20T09:53:22;56.69;37.79;68.87;;
72160;Laerm;60045;51.792;10.938;2023-12-20T09:55:48;58.99;39.16;70.84;;
72160;Laerm;60045;51.792;10.938;2023-12-20T09:58:14;62.10;40.41;77.24;;
72160;Laerm;60045;51.792;10.938;2023-12-20T10:00:40;61.89;41.30;75.99;;
72160;Laerm;60045;51.792;10.938;2023-12-20T10:03:06;65.45;43.33;78.77;;
72160;Laerm;60045;51.792;10.938;2023-12-20T10:05:32;68.27;43.34;82.77;;
72160;Laerm;60045;51.792;10.938;2023-12-20T10:07:59;61.52;40.31;72.44;;
72160;Laerm;60045;51.792;10.938;2023-12-20T10:10:25;61.80;43.31;73.57;;
72160;Laerm;60045;51.792;10.938;2023-12-20T10:13:04;61.14;44.92;72.58;;
72160;Laerm;60045;51.792;10.938;2023-12-20T10:15:30;62.84;44.87;75.19;;
72160;Laerm;60045;51.792;10.938;2023-12-20T10:17:56;56.09;44.01;69.90;;
72160;Laerm;60045;51.792;10.938;2023-12-20T10:20:22;66.39;43.43;81.10;;
72160;Laerm;60045;51.792;10.938;2023-12-20T10:22:48;64.20;43.25;80.12;;
72160;Laerm;60045;51.792;10.938;2023-12-20T10:25:14;62.32;43.10;73.28;;
72160;Laerm;60045;51.792;10.938;2023-12-20T10:27:39;58.78;39.91;70.66;;
72160;Laerm;60045;51.792;10.938;2023-12-20T10:30:05;61.13;39.41;73.71;;
72160;Laerm;60045;51.792;10.938;2023-12-20T10:32:31;69.44;38.49;81.98;;
72160;Laerm;60045;51.792;10.938;2023-12-20T10:34:57;58.71;39.65;74.06;;
72160;Laerm;60045;51.792;10.938;2023-12-20T10:37:24;65.20;40.07;81.07;;
72160;Laerm;60045;51.792;10.938;2023-12-20T10:39:51;61.84;40.03;74.18;;
72160;Laerm;60045;51.792;10.938;2023-12-20T10:42:20;55.75;39.28;68.51;;
72160;Laerm;60045;51.792;10.938;2023-12-20T10:44:46;66.41;44.20;81.93;;
72160;Laerm;60045;51.792;10.938;2023-12-20T10:47:12;62.32;42.80;73.41;;
72160;Laerm;60045;51.792;10.938;2023-12-20T10:49:38;56.47;41.26;71.04;;
72160;Laerm;60045;51.792;10.938;2023-12-20T10:52:04;56.63;42.11;71.78;;
72160;Laerm;60045;51.792;10.938;2023-12-20T10:54:31;65.01;43.04;78.56;;
72160;Laerm;60045;51.792;10.938;2023-12-20T10:56:57;67.96;42.59;86.18;;
72160;Laerm;60045;51.792;10.938;2023-12-20T10:59:23;62.65;44.18;75.89;;
72160;Laerm;60045;51.792;10.938;2023-12-20T11:01:50;62.61;43.49;80.17;;
72160;Laerm;60045;51.792;10.938;2023-12-20T11:04:18;66.55;42.61;80.98;;
72160;Laerm;60045;51.792;10.938;2023-12-20T11:06:47;69.27;39.82;86.75;;
72160;Laerm;60045;51.792;10.938;2023-12-20T11:14:41;59.09;40.41;72.71;;
72160;Laerm;60045;51.792;10.938;2023-12-20T11:17:09;65.73;42.33;81.36;;
72160;Laerm;60045;51.792;10.938;2023-12-20T11:19:38;67.09;40.53;81.37;;
72160;Laerm;60045;51.792;10.938;2023-12-20T11:22:04;60.54;40.14;73.83;;
72160;Laerm;60045;51.792;10.938;2023-12-20T11:24:31;69.10;43.89;82.01;;
72160;Laerm;60045;51.792;10.938;2023-12-20T11:26:59;58.98;39.79;72.42;;
72160;Laerm;60045;51.792;10.938;2023-12-20T11:29:43;61.88;42.65;74.70;;
72160;Laerm;60045;51.792;10.938;2023-12-20T11:37:21;59.22;39.71;74.52;;
72160;Laerm;60045;51.792;10.938;2023-12-20T11:39:56;61.57;40.91;74.06;;
72160;Laerm;60045;51.792;10.938;2023-12-20T11:42:22;64.95;40.64;81.32;;
72160;Laerm;60045;51.792;10.938;2023-12-20T11:44:48;57.67;41.19;71.53;;
72160;Laerm;60045;51.792;10.938;2023-12-20T11:47:13;68.35;47.95;81.32;;
72160;Laerm;60045;51.792;10.938;2023-12-20T11:49:40;63.74;47.13;76.99;;
72160;Laerm;60045;51.792;10.938;2023-12-20T11:52:06;62.48;45.88;77.89;;
72160;Laerm;60045;51.792;10.938;2023-12-20T11:54:32;64.74;45.56;79.59;;
72160;Laerm;60045;51.792;10.938;2023-12-20T11:56:58;60.23;44.81;72.45;;
72160;Laerm;60045;51.792;10.938;2023-12-20T11:59:23;68.47;46.75;81.47;;
72160;Laerm;60045;51.792;10.938;2023-12-20T12:01:49;67.44;47.74;81.57;;
72160;Laerm;60045;51.792;10.938;2023-12-20T12:04:15;57.97;43.00;71.38;;
72160;Laerm;60045;51.792;10.938;2023-12-20T12:06:42;46.18;42.43;63.01;;
72160;Laerm;60045;51.792;10.938;2023-12-20T12:09:08;67.88;41.52;80.15;;
72160;Laerm;60045;51.792;10.938;2023-12-20T12:11:34;69.44;40.60;82.75;;
72160;Laerm;60045;51.792;10.938;2023-12-20T12:14:00;60.60;43.35;74.98;;
72160;Laerm;60045;51.792;10.938;2023-12-20T12:16:26;66.51;42.44;81.15;;
72160;Laerm;60045;51.792;10.938;2023-12-20T12:18:57;69.25;44.64;81.09;;
72160;Laerm;60045;51.792;10.938;2023-12-20T12:21:23;58.09;43.04;74.32;;
72160;Laerm;60045;51.792;10.938;2023-12-20T12:23:49;60.96;43.10;74.55;;
72160;Laerm;60045;51.792;10.938;2023-12-20T12:26:15;62.09;41.08;74.70;;
72160;Laerm;60045;51.792;10.938;2023-12-20T12:28:41;68.56;45.69;77.63;;
72160;Laerm;60045;51.792;10.938;2023-12-20T12:31:07;60.58;38.90;73.87;;
72160;Laerm;60045;51.792;10.938;2023-12-20T12:33:33;71.50;42.15;92.11;;
72160;Laerm;60045;51.792;10.938;2023-12-20T12:36:00;62.88;41.32;76.85;;
72160;Laerm;60045;51.792;10.938;2023-12-20T12:38:26;61.44;39.52;75.54;;
72160;Laerm;60045;51.792;10.938;2023-12-20T12:40:52;61.52;39.01;76.81;;
72160;Laerm;60045;51.792;10.938;2023-12-20T12:43:19;67.32;40.20;81.42;;
72160;Laerm;60045;51.792;10.938;2023-12-20T12:45:44;63.81;39.90;78.64;;
72160;Laerm;60045;51.792;10.938;2023-12-20T12:48:10;67.30;37.89;84.17;;
72160;Laerm;60045;51.792;10.938;2023-12-20T12:50:36;57.61;37.13;73.91;;
72160;Laerm;60045;51.792;10.938;2023-12-20T12:53:02;69.43;37.39;85.46;;
72160;Laerm;60045;51.792;10.938;2023-12-20T12:55:28;65.71;36.63;82.50;;
72160;Laerm;60045;51.792;10.938;2023-12-20T12:57:53;61.29;39.68;74.88;;
72160;Laerm;60045;51.792;10.938;2023-12-20T13:00:19;69.85;42.02;81.13;;
72160;Laerm;60045;51.792;10.938;2023-12-20T13:02:46;66.35;42.25;83.36;;
72160;Laerm;60045;51.792;10.938;2023-12-20T13:05:12;57.21;37.28;71.85;;
72160;Laerm;60045;51.792;10.938;2023-12-20T13:07:38;60.97;37.32;73.38;;
72160;Laerm;60045;51.792;10.938;2023-12-20T13:10:04;66.69;39.86;81.61;;
72160;Laerm;60045;51.792;10.938;2023-12-20T13:12:30;46.45;37.46;56.46;;
72160;Laerm;60045;51.792;10.938;2023-12-20T13:14:57;65.96;39.76;78.54;;
72160;Laerm;60045;51.792;10.938;2023-12-20T13:17:22;59.55;37.59;72.64;;
72160;Laerm;60045;51.792;10.938;2023-12-20T13:19:48;71.38;41.13;89.14;;
72160;Laerm;60045;51.792;10.938;2023-12-20T13:22:14;64.25;37.68;79.43;;
72160;Laerm;60045;51.792;10.938;2023-12-20T13:24:40;66.04;38.71;81.14;;
72160;Laerm;60045;51.792;10.938;2023-12-20T13:27:06;64.54;43.11;75.71;;
72160;Laerm;60045;51.792;10.938;2023-12-20T13:29:31;64.20;37.05;74.84;;
72160;Laerm;60045;51.792;10.938;2023-12-20T13:31:57;61.27;36.54;76.02;;
72160;Laerm;60045;51.792;10.938;2023-12-20T13:34:23;59.21;41.43;74.23;;
72160;Laerm;60045;51.792;10.938;2023-12-20T13:36:49;65.57;46.23;76.04;;